sensor_id;sensor_type;location;lat;lon;timestamp;P1;durP1;ratioP1;P2;durP2;ratioP2
27257;SDS011;62045;49.986;8.672;2022-12-10T00:04:22;3.58;;;2.00;;
27257;SDS011;62045;49.986;8.672;2022-12-10T00:09:24;4.30;;;2.00;;
27257;SDS011;62045;49.986;8.672;2022-12-10T00:14:25;3.13;;;1.90;;
27257;SDS011;62045;49.986;8.672;2022-12-10T00:19:26;3.45;;;1.98;;
27257;SDS011;62045;49.986;8.672;2022-12-10T00:24:28;2.72;;;1.77;;
27257;SDS011;62045;49.986;8.672;2022-12-10T00:29:29;3.55;;;2.17;;
27257;SDS011;62045;49.986;8.672;2022-12-10T00:34:29;3.17;;;2.08;;
27257;SDS011;62045;49.986;8.672;2022-12-10T00:39:31;2.92;;;2.10;;
27257;SDS011;62045;49.986;8.672;2022-12-10T00:44:32;2.92;;;1.95;;
27257;SDS011;62045;49.986;8.672;2022-12-10T00:49:33;3.55;;;2.35;;
27257;SDS011;62045;49.986;8.672;2022-12-10T00:54:35;3.33;;;2.05;;
27257;SDS011;62045;49.986;8.672;2022-12-10T00:59:36;2.67;;;1.52;;
27257;SDS011;62045;49.986;8.672;2022-12-10T01:04:36;3.50;;;1.95;;
27257;SDS011;62045;49.986;8.672;2022-12-10T01:09:39;3.50;;;2.20;;
27257;SDS011;62045;49.986;8.672;2022-12-10T01:14:39;3.97;;;2.10;;
27257;SDS011;62045;49.986;8.672;2022-12-10T01:19:40;3.30;;;2.20;;
27257;SDS011;62045;49.986;8.672;2022-12-10T01:24:42;3.80;;;2.47;;
27257;SDS011;62045;49.986;8.672;2022-12-10T01:29:43;3.42;;;2.25;;
27257;SDS011;62045;49.986;8.672;2022-12-10T01:34:44;3.67;;;2.28;;
27257;SDS011;62045;49.986;8.672;2022-12-10T01:39:47;3.25;;;2.00;;
27257;SDS011;62045;49.986;8.672;2022-12-10T01:44:58;3.55;;;2.10;;
27257;SDS011;62045;49.986;8.672;2022-12-10T01:50:02;3.25;;;1.98;;
27257;SDS011;62045;49.986;8.672;2022-12-10T01:55:34;2.78;;;1.80;;
27257;SDS011;62045;49.986;8.672;2022-12-10T02:00:51;3.35;;;2.00;;
27257;SDS011;62045;49.986;8.672;2022-12-10T02:06:01;3.33;;;1.90;;
27257;SDS011;62045;49.986;8.672;2022-12-10T02:11:10;2.70;;;1.70;;
27257;SDS011;62045;49.986;8.672;2022-12-10T02:16:18;3.22;;;2.20;;
27257;SDS011;62045;49.986;8.672;2022-12-10T02:21:24;3.22;;;1.92;;
27257;SDS011;62045;49.986;8.672;2022-12-10T02:26:38;3.38;;;2.10;;
27257;SDS011;62045;49.986;8.672;2022-12-10T02:31:45;2.78;;;1.75;;
27257;SDS011;62045;49.986;8.672;2022-12-10T02:36:49;3.63;;;2.22;;
27257;SDS011;62045;49.986;8.672;2022-12-10T02:41:54;4.25;;;1.90;;
27257;SDS011;62045;49.986;8.672;2022-12-10T02:46:57;2.83;;;1.50;;
27257;SDS011;62045;49.986;8.672;2022-12-10T02:52:06;2.30;;;1.40;;
27257;SDS011;62045;49.986;8.672;2022-12-10T02:57:20;2.58;;;1.67;;
27257;SDS011;62045;49.986;8.672;2022-12-10T03:02:38;2.42;;;1.38;;
27257;SDS011;62045;49.986;8.672;2022-12-10T03:07:46;3.40;;;2.15;;
27257;SDS011;62045;49.986;8.672;2022-12-10T03:12:52;2.75;;;1.58;;
27257;SDS011;62045;49.986;8.672;2022-12-10T03:17:59;2.47;;;1.58;;
27257;SDS011;62045;49.986;8.672;2022-12-10T03:23:02;3.00;;;1.80;;
27257;SDS011;62045;49.986;8.672;2022-12-10T03:28:05;3.17;;;1.33;;
27257;SDS011;62045;49.986;8.672;2022-12-10T03:33:09;2.75;;;1.50;;
27257;SDS011;62045;49.986;8.672;2022-12-10T03:38:11;2.58;;;1.55;;
27257;SDS011;62045;49.986;8.672;2022-12-10T03:43:12;2.03;;;1.30;;
27257;SDS011;62045;49.986;8.672;2022-12-10T03:48:15;2.25;;;1.20;;
27257;SDS011;62045;49.986;8.672;2022-12-10T03:53:15;2.78;;;1.45;;
27257;SDS011;62045;49.986;8.672;2022-12-10T03:58:16;2.30;;;1.30;;
27257;SDS011;62045;49.986;8.672;2022-12-10T04:03:18;2.10;;;1.20;;
27257;SDS011;62045;49.986;8.672;2022-12-10T04:08:19;2.30;;;1.30;;
27257;SDS011;62045;49.986;8.672;2022-12-10T04:13:19;3.28;;;1.20;;
27257;SDS011;62045;49.986;8.672;2022-12-10T04:18:21;2.30;;;1.30;;
27257;SDS011;62045;49.986;8.672;2022-12-10T04:23:22;2.20;;;1.23;;
27257;SDS011;62045;49.986;8.672;2022-12-10T04:28:23;2.20;;;1.35;;
27257;SDS011;62045;49.986;8.672;2022-12-10T04:33:25;3.13;;;1.60;;
27257;SDS011;62045;49.986;8.672;2022-12-10T04:38:25;3.33;;;1.58;;
27257;SDS011;62045;49.986;8.672;2022-12-10T04:43:26;2.78;;;1.48;;
27257;SDS011;62045;49.986;8.672;2022-12-10T04:48:28;1.70;;;1.10;;
27257;SDS011;62045;49.986;8.672;2022-12-10T04:53:29;2.25;;;1.30;;
27257;SDS011;62045;49.986;8.672;2022-12-10T04:58:30;2.30;;;1.10;;
27257;SDS011;62045;49.986;8.672;2022-12-10T05:03:32;2.22;;;1.23;;
27257;SDS011;62045;49.986;8.672;2022-12-10T05:08:33;2.10;;;1.10;;
27257;SDS011;62045;49.986;8.672;2022-12-10T05:13:34;2.10;;;1.33;;
27257;SDS011;62045;49.986;8.672;2022-12-10T05:18:36;1.60;;;1.00;;
27257;SDS011;62045;49.986;8.672;2022-12-10T05:23:37;2.10;;;1.30;;
27257;SDS011;62045;49.986;8.672;2022-12-10T05:28:39;2.00;;;1.25;;
27257;SDS011;62045;49.986;8.672;2022-12-10T05:33:42;2.33;;;1.00;;
27257;SDS011;62045;49.986;8.672;2022-12-10T05:38:44;2.20;;;1.02;;
27257;SDS011;62045;49.986;8.672;2022-12-10T05:43:45;1.95;;;1.00;;
27257;SDS011;62045;49.986;8.672;2022-12-10T05:48:47;1.92;;;1.05;;
27257;SDS011;62045;49.986;8.672;2022-12-10T05:53:48;1.30;;;0.80;;
27257;SDS011;62045;49.986;8.672;2022-12-10T05:58:52;1.70;;;0.93;;
27257;SDS011;62045;49.986;8.672;2022-12-10T06:08:56;2.17;;;1.00;;
27257;SDS011;62045;49.986;8.672;2022-12-10T06:13:58;1.95;;;1.00;;
27257;SDS011;62045;49.986;8.672;2022-12-10T06:19:00;1.95;;;1.10;;
27257;SDS011;62045;49.986;8.672;2022-12-10T06:24:01;2.17;;;1.00;;
27257;SDS011;62045;49.986;8.672;2022-12-10T06:29:02;2.33;;;1.30;;
27257;SDS011;62045;49.986;8.672;2022-12-10T06:34:04;7.13;;;1.70;;
27257;SDS011;62045;49.986;8.672;2022-12-10T06:39:05;10.68;;;5.85;;
27257;SDS011;62045;49.986;8.672;2022-12-10T06:44:06;9.32;;;6.68;;
27257;SDS011;62045;49.986;8.672;2022-12-10T06:49:08;7.40;;;5.50;;
27257;SDS011;62045;49.986;8.672;2022-12-10T06:54:10;6.00;;;4.60;;
27257;SDS011;62045;49.986;8.672;2022-12-10T06:59:10;5.60;;;3.70;;
27257;SDS011;62045;49.986;8.672;2022-12-10T07:04:12;6.95;;;3.47;;
27257;SDS011;62045;49.986;8.672;2022-12-10T07:09:13;7.10;;;3.10;;
27257;SDS011;62045;49.986;8.672;2022-12-10T07:14:15;5.10;;;2.83;;
27257;SDS011;62045;49.986;8.672;2022-12-10T07:19:18;4.13;;;2.75;;
27257;SDS011;62045;49.986;8.672;2022-12-10T07:24:18;3.45;;;2.40;;
27257;SDS011;62045;49.986;8.672;2022-12-10T07:29:22;5.25;;;2.40;;
27257;SDS011;62045;49.986;8.672;2022-12-10T07:34:24;2.63;;;1.80;;
27257;SDS011;62045;49.986;8.672;2022-12-10T07:39:25;4.40;;;2.05;;
27257;SDS011;62045;49.986;8.672;2022-12-10T07:44:26;3.80;;;2.22;;
27257;SDS011;62045;49.986;8.672;2022-12-10T07:49:28;3.70;;;1.98;;
27257;SDS011;62045;49.986;8.672;2022-12-10T07:54:29;5.57;;;2.05;;
27257;SDS011;62045;49.986;8.672;2022-12-10T07:59:30;3.03;;;2.00;;
27257;SDS011;62045;49.986;8.672;2022-12-10T08:04:32;2.55;;;1.65;;
27257;SDS011;62045;49.986;8.672;2022-12-10T08:09:33;3.30;;;1.80;;
27257;SDS011;62045;49.986;8.672;2022-12-10T08:14:34;2.88;;;1.80;;
27257;SDS011;62045;49.986;8.672;2022-12-10T08:19:36;2.60;;;1.80;;
27257;SDS011;62045;49.986;8.672;2022-12-10T08:24:37;4.90;;;2.00;;
27257;SDS011;62045;49.986;8.672;2022-12-10T08:29:37;3.38;;;2.30;;
27257;SDS011;62045;49.986;8.672;2022-12-10T08:34:40;4.28;;;2.50;;
27257;SDS011;62045;49.986;8.672;2022-12-10T08:39:40;4.45;;;2.95;;
27257;SDS011;62045;49.986;8.672;2022-12-10T08:44:41;3.63;;;2.60;;
27257;SDS011;62045;49.986;8.672;2022-12-10T08:49:43;6.30;;;3.40;;
27257;SDS011;62045;49.986;8.672;2022-12-10T08:54:44;7.82;;;3.15;;
27257;SDS011;62045;49.986;8.672;2022-12-10T08:59:45;4.55;;;3.00;;
27257;SDS011;62045;49.986;8.672;2022-12-10T09:04:47;4.20;;;3.20;;
27257;SDS011;62045;49.986;8.672;2022-12-10T09:09:49;5.72;;;3.78;;
27257;SDS011;62045;49.986;8.672;2022-12-10T09:14:50;4.78;;;3.97;;
27257;SDS011;62045;49.986;8.672;2022-12-10T09:19:52;6.38;;;4.50;;
27257;SDS011;62045;49.986;8.672;2022-12-10T09:24:53;6.22;;;3.83;;
27257;SDS011;62045;49.986;8.672;2022-12-10T09:29:53;6.13;;;4.35;;
27257;SDS011;62045;49.986;8.672;2022-12-10T09:34:55;4.57;;;3.70;;
27257;SDS011;62045;49.986;8.672;2022-12-10T09:39:56;5.38;;;4.22;;
27257;SDS011;62045;49.986;8.672;2022-12-10T09:44:58;6.20;;;4.22;;
27257;SDS011;62045;49.986;8.672;2022-12-10T09:50:10;5.75;;;4.20;;
27257;SDS011;62045;49.986;8.672;2022-12-10T09:55:16;5.50;;;4.13;;
27257;SDS011;62045;49.986;8.672;2022-12-10T10:00:21;6.40;;;4.60;;
27257;SDS011;62045;49.986;8.672;2022-12-10T10:05:27;5.53;;;3.85;;
27257;SDS011;62045;49.986;8.672;2022-12-10T10:10:31;6.22;;;4.70;;
27257;SDS011;62045;49.986;8.672;2022-12-10T10:15:34;6.72;;;4.60;;
27257;SDS011;62045;49.986;8.672;2022-12-10T10:20:37;34.53;;;4.93;;
27257;SDS011;62045;49.986;8.672;2022-12-10T10:25:38;19.55;;;5.13;;
27257;SDS011;62045;49.986;8.672;2022-12-10T10:30:40;21.77;;;5.03;;
27257;SDS011;62045;49.986;8.672;2022-12-10T10:35:45;16.77;;;4.30;;
27257;SDS011;62045;49.986;8.672;2022-12-10T10:40:49;13.43;;;4.45;;
27257;SDS011;62045;49.986;8.672;2022-12-10T10:45:52;12.53;;;4.03;;
27257;SDS011;62045;49.986;8.672;2022-12-10T10:51:07;13.40;;;3.88;;
27257;SDS011;62045;49.986;8.672;2022-12-10T10:56:14;8.10;;;3.08;;
27257;SDS011;62045;49.986;8.672;2022-12-10T11:01:16;10.20;;;2.83;;
27257;SDS011;62045;49.986;8.672;2022-12-10T11:06:18;11.13;;;3.80;;
27257;SDS011;62045;49.986;8.672;2022-12-10T11:11:20;9.25;;;3.33;;
27257;SDS011;62045;49.986;8.672;2022-12-10T11:16:25;8.23;;;2.78;;
27257;SDS011;62045;49.986;8.672;2022-12-10T11:21:27;7.97;;;3.08;;
27257;SDS011;62045;49.986;8.672;2022-12-10T11:26:32;10.27;;;2.83;;
27257;SDS011;62045;49.986;8.672;2022-12-10T11:31:46;7.68;;;3.17;;
27257;SDS011;62045;49.986;8.672;2022-12-10T11:36:59;9.70;;;2.85;;
27257;SDS011;62045;49.986;8.672;2022-12-10T11:42:09;7.07;;;2.72;;
27257;SDS011;62045;49.986;8.672;2022-12-10T11:47:27;8.20;;;2.30;;
27257;SDS011;62045;49.986;8.672;2022-12-10T11:52:39;7.80;;;2.80;;
27257;SDS011;62045;49.986;8.672;2022-12-10T11:57:49;11.60;;;2.58;;
27257;SDS011;62045;49.986;8.672;2022-12-10T12:03:06;15.77;;;3.85;;
27257;SDS011;62045;49.986;8.672;2022-12-10T12:08:21;16.88;;;3.65;;
27257;SDS011;62045;49.986;8.672;2022-12-10T12:13:30;11.65;;;3.40;;
27257;SDS011;62045;49.986;8.672;2022-12-10T12:18:37;8.88;;;3.00;;
27257;SDS011;62045;49.986;8.672;2022-12-10T12:23:47;11.07;;;3.17;;
27257;SDS011;62045;49.986;8.672;2022-12-10T12:28:52;9.50;;;3.10;;
27257;SDS011;62045;49.986;8.672;2022-12-10T12:34:01;7.07;;;2.50;;
27257;SDS011;62045;49.986;8.672;2022-12-10T12:39:09;7.57;;;1.92;;
27257;SDS011;62045;49.986;8.672;2022-12-10T12:44:18;9.32;;;2.75;;
27257;SDS011;62045;49.986;8.672;2022-12-10T12:49:25;9.57;;;2.63;;
27257;SDS011;62045;49.986;8.672;2022-12-10T12:54:30;6.13;;;2.85;;
27257;SDS011;62045;49.986;8.672;2022-12-10T12:59:42;6.10;;;2.57;;
27257;SDS011;62045;49.986;8.672;2022-12-10T13:04:51;6.75;;;2.25;;
27257;SDS011;62045;49.986;8.672;2022-12-10T13:10:07;4.30;;;1.90;;
27257;SDS011;62045;49.986;8.672;2022-12-10T13:15:18;5.63;;;2.50;;
27257;SDS011;62045;49.986;8.672;2022-12-10T13:20:34;5.60;;;2.50;;
27257;SDS011;62045;49.986;8.672;2022-12-10T13:25:42;5.07;;;2.10;;
27257;SDS011;62045;49.986;8.672;2022-12-10T13:31:07;5.28;;;1.98;;
27257;SDS011;62045;49.986;8.672;2022-12-10T13:36:20;5.03;;;1.98;;
27257;SDS011;62045;49.986;8.672;2022-12-10T13:41:25;6.20;;;2.10;;
27257;SDS011;62045;49.986;8.672;2022-12-10T13:46:28;4.05;;;1.92;;
27257;SDS011;62045;49.986;8.672;2022-12-10T13:51:39;4.25;;;2.00;;
27257;SDS011;62045;49.986;8.672;2022-12-10T13:56:51;6.32;;;2.03;;
27257;SDS011;62045;49.986;8.672;2022-12-10T14:02:01;4.45;;;1.55;;
27257;SDS011;62045;49.986;8.672;2022-12-10T14:07:18;4.30;;;1.90;;
27257;SDS011;62045;49.986;8.672;2022-12-10T14:12:22;4.03;;;1.83;;
27257;SDS011;62045;49.986;8.672;2022-12-10T14:17:30;3.95;;;1.70;;
27257;SDS011;62045;49.986;8.672;2022-12-10T14:22:34;3.60;;;1.90;;
27257;SDS011;62045;49.986;8.672;2022-12-10T14:27:44;3.38;;;1.48;;
27257;SDS011;62045;49.986;8.672;2022-12-10T14:32:47;3.15;;;1.63;;
27257;SDS011;62045;49.986;8.672;2022-12-10T14:37:49;4.65;;;1.50;;
27257;SDS011;62045;49.986;8.672;2022-12-10T14:42:55;3.17;;;1.80;;
27257;SDS011;62045;49.986;8.672;2022-12-10T14:48:02;2.85;;;1.30;;
27257;SDS011;62045;49.986;8.672;2022-12-10T14:53:05;4.38;;;1.70;;
27257;SDS011;62045;49.986;8.672;2022-12-10T14:58:14;3.97;;;1.42;;
27257;SDS011;62045;49.986;8.672;2022-12-10T15:03:22;5.60;;;1.85;;
27257;SDS011;62045;49.986;8.672;2022-12-10T15:08:27;4.05;;;1.60;;
27257;SDS011;62045;49.986;8.672;2022-12-10T15:13:32;8.90;;;2.47;;
27257;SDS011;62045;49.986;8.672;2022-12-10T15:18:37;7.53;;;1.88;;
27257;SDS011;62045;49.986;8.672;2022-12-10T15:23:38;7.20;;;2.22;;
27257;SDS011;62045;49.986;8.672;2022-12-10T15:28:41;6.47;;;1.80;;
27257;SDS011;62045;49.986;8.672;2022-12-10T15:33:43;9.15;;;2.25;;
27257;SDS011;62045;49.986;8.672;2022-12-10T15:43:56;12.77;;;1.98;;
27257;SDS011;62045;49.986;8.672;2022-12-10T15:49:02;11.35;;;2.40;;
27257;SDS011;62045;49.986;8.672;2022-12-10T15:54:12;10.13;;;2.67;;
27257;SDS011;62045;49.986;8.672;2022-12-10T15:59:20;9.60;;;2.05;;
27257;SDS011;62045;49.986;8.672;2022-12-10T16:04:20;6.20;;;2.17;;
27257;SDS011;62045;49.986;8.672;2022-12-10T16:09:22;6.78;;;2.40;;
27257;SDS011;62045;49.986;8.672;2022-12-10T16:14:24;5.13;;;2.05;;
27257;SDS011;62045;49.986;8.672;2022-12-10T16:19:25;14.20;;;2.15;;
27257;SDS011;62045;49.986;8.672;2022-12-10T16:24:26;6.38;;;2.10;;
27257;SDS011;62045;49.986;8.672;2022-12-10T16:29:28;4.68;;;1.60;;
27257;SDS011;62045;49.986;8.672;2022-12-10T16:34:29;4.78;;;1.80;;
27257;SDS011;62045;49.986;8.672;2022-12-10T16:39:30;4.32;;;2.42;;
27257;SDS011;62045;49.986;8.672;2022-12-10T16:44:32;4.13;;;1.60;;
27257;SDS011;62045;49.986;8.672;2022-12-10T16:49:32;4.65;;;1.50;;
27257;SDS011;62045;49.986;8.672;2022-12-10T16:54:33;4.07;;;1.80;;
27257;SDS011;62045;49.986;8.672;2022-12-10T16:59:35;4.13;;;1.90;;
27257;SDS011;62045;49.986;8.672;2022-12-10T17:04:38;4.63;;;1.70;;
27257;SDS011;62045;49.986;8.672;2022-12-10T17:09:39;4.03;;;1.80;;
27257;SDS011;62045;49.986;8.672;2022-12-10T17:14:42;3.45;;;1.60;;
27257;SDS011;62045;49.986;8.672;2022-12-10T17:19:44;3.10;;;1.60;;
27257;SDS011;62045;49.986;8.672;2022-12-10T17:24:45;2.92;;;1.63;;
27257;SDS011;62045;49.986;8.672;2022-12-10T17:29:47;4.68;;;1.58;;
27257;SDS011;62045;49.986;8.672;2022-12-10T17:34:48;2.90;;;1.50;;
27257;SDS011;62045;49.986;8.672;2022-12-10T17:39:49;5.10;;;1.50;;
27257;SDS011;62045;49.986;8.672;2022-12-10T17:44:51;11.68;;;3.35;;
27257;SDS011;62045;49.986;8.672;2022-12-10T17:49:52;14.98;;;4.13;;
27257;SDS011;62045;49.986;8.672;2022-12-10T17:54:52;11.43;;;2.38;;
27257;SDS011;62045;49.986;8.672;2022-12-10T17:59:54;6.45;;;3.10;;
27257;SDS011;62045;49.986;8.672;2022-12-10T18:04:55;7.03;;;2.55;;
27257;SDS011;62045;49.986;8.672;2022-12-10T18:09:56;6.95;;;2.60;;
27257;SDS011;62045;49.986;8.672;2022-12-10T18:14:59;5.68;;;2.67;;
27257;SDS011;62045;49.986;8.672;2022-12-10T18:20:00;6.03;;;2.50;;
27257;SDS011;62045;49.986;8.672;2022-12-10T18:25:00;6.97;;;2.17;;
27257;SDS011;62045;49.986;8.672;2022-12-10T18:30:03;8.60;;;2.03;;
27257;SDS011;62045;49.986;8.672;2022-12-10T18:35:04;4.13;;;2.00;;
27257;SDS011;62045;49.986;8.672;2022-12-10T18:40:06;8.23;;;2.47;;
27257;SDS011;62045;49.986;8.672;2022-12-10T18:45:13;5.60;;;2.50;;
27257;SDS011;62045;49.986;8.672;2022-12-10T18:50:16;6.22;;;2.30;;
27257;SDS011;62045;49.986;8.672;2022-12-10T18:55:20;3.80;;;1.77;;
27257;SDS011;62045;49.986;8.672;2022-12-10T19:00:25;4.33;;;1.80;;
27257;SDS011;62045;49.986;8.672;2022-12-10T19:10:27;4.00;;;1.85;;
27257;SDS011;62045;49.986;8.672;2022-12-10T19:15:29;6.45;;;2.30;;
27257;SDS011;62045;49.986;8.672;2022-12-10T19:20:30;4.93;;;2.35;;
27257;SDS011;62045;49.986;8.672;2022-12-10T19:25:31;3.58;;;1.85;;
27257;SDS011;62045;49.986;8.672;2022-12-10T19:30:33;3.97;;;1.70;;
27257;SDS011;62045;49.986;8.672;2022-12-10T19:35:33;4.68;;;1.80;;
27257;SDS011;62045;49.986;8.672;2022-12-10T19:40:34;3.15;;;1.55;;
27257;SDS011;62045;49.986;8.672;2022-12-10T19:45:37;4.30;;;1.80;;
27257;SDS011;62045;49.986;8.672;2022-12-10T19:50:39;2.95;;;1.60;;
27257;SDS011;62045;49.986;8.672;2022-12-10T19:55:43;3.50;;;1.90;;
27257;SDS011;62045;49.986;8.672;2022-12-10T20:00:45;3.05;;;1.50;;
27257;SDS011;62045;49.986;8.672;2022-12-10T20:05:46;4.35;;;1.88;;
27257;SDS011;62045;49.986;8.672;2022-12-10T20:10:47;2.83;;;1.67;;
27257;SDS011;62045;49.986;8.672;2022-12-10T20:15:49;4.95;;;1.80;;
27257;SDS011;62045;49.986;8.672;2022-12-10T20:20:49;3.63;;;1.73;;
27257;SDS011;62045;49.986;8.672;2022-12-10T20:25:50;2.65;;;1.45;;
27257;SDS011;62045;49.986;8.672;2022-12-10T20:30:52;3.22;;;1.60;;
27257;SDS011;62045;49.986;8.672;2022-12-10T20:35:53;4.63;;;1.52;;
27257;SDS011;62045;49.986;8.672;2022-12-10T20:40:54;3.75;;;1.73;;
27257;SDS011;62045;49.986;8.672;2022-12-10T20:45:56;4.05;;;1.80;;
27257;SDS011;62045;49.986;8.672;2022-12-10T20:50:56;3.42;;;1.83;;
27257;SDS011;62045;49.986;8.672;2022-12-10T20:55:57;2.70;;;1.42;;
27257;SDS011;62045;49.986;8.672;2022-12-10T21:00:59;3.13;;;1.80;;
27257;SDS011;62045;49.986;8.672;2022-12-10T21:06:00;2.88;;;1.50;;
27257;SDS011;62045;49.986;8.672;2022-12-10T21:11:01;3.53;;;1.52;;
27257;SDS011;62045;49.986;8.672;2022-12-10T21:16:03;4.00;;;1.70;;
27257;SDS011;62045;49.986;8.672;2022-12-10T21:21:05;3.38;;;1.75;;
27257;SDS011;62045;49.986;8.672;2022-12-10T21:26:06;3.10;;;1.73;;
27257;SDS011;62045;49.986;8.672;2022-12-10T21:31:09;4.20;;;1.90;;
27257;SDS011;62045;49.986;8.672;2022-12-10T21:36:15;3.35;;;1.80;;
27257;SDS011;62045;49.986;8.672;2022-12-10T21:41:18;3.40;;;1.60;;
27257;SDS011;62045;49.986;8.672;2022-12-10T21:46:21;4.88;;;1.52;;
27257;SDS011;62045;49.986;8.672;2022-12-10T21:51:22;5.00;;;1.92;;
27257;SDS011;62045;49.986;8.672;2022-12-10T21:56:23;3.42;;;1.88;;
27257;SDS011;62045;49.986;8.672;2022-12-10T22:01:25;3.47;;;1.80;;
27257;SDS011;62045;49.986;8.672;2022-12-10T22:06:26;3.88;;;1.98;;
27257;SDS011;62045;49.986;8.672;2022-12-10T22:11:28;3.17;;;1.67;;
27257;SDS011;62045;49.986;8.672;2022-12-10T22:16:30;3.72;;;1.70;;
27257;SDS011;62045;49.986;8.672;2022-12-10T22:21:30;3.08;;;1.80;;
27257;SDS011;62045;49.986;8.672;2022-12-10T22:26:31;3.45;;;1.77;;
27257;SDS011;62045;49.986;8.672;2022-12-10T22:31:33;2.90;;;1.70;;
27257;SDS011;62045;49.986;8.672;2022-12-10T22:36:34;3.53;;;1.75;;
27257;SDS011;62045;49.986;8.672;2022-12-10T22:41:36;3.58;;;1.90;;
27257;SDS011;62045;49.986;8.672;2022-12-10T22:46:38;3.47;;;1.80;;
27257;SDS011;62045;49.986;8.672;2022-12-10T22:51:39;2.72;;;1.50;;
27257;SDS011;62045;49.986;8.672;2022-12-10T22:56:39;3.00;;;1.75;;
27257;SDS011;62045;49.986;8.672;2022-12-10T23:01:41;3.80;;;1.80;;
27257;SDS011;62045;49.986;8.672;2022-12-10T23:06:42;3.20;;;1.88;;
27257;SDS011;62045;49.986;8.672;2022-12-10T23:11:43;3.10;;;1.77;;
27257;SDS011;62045;49.986;8.672;2022-12-10T23:16:45;3.47;;;1.80;;
27257;SDS011;62045;49.986;8.672;2022-12-10T23:21:46;3.00;;;1.67;;
27257;SDS011;62045;49.986;8.672;2022-12-10T23:26:46;2.72;;;1.60;;
27257;SDS011;62045;49.986;8.672;2022-12-10T23:31:48;3.30;;;1.88;;
27257;SDS011;62045;49.986;8.672;2022-12-10T23:36:49;2.63;;;1.63;;
27257;SDS011;62045;49.986;8.672;2022-12-10T23:41:50;2.83;;;1.90;;
27257;SDS011;62045;49.986;8.672;2022-12-10T23:46:53;3.50;;;2.00;;
27257;SDS011;62045;49.986;8.672;2022-12-10T23:51:53;2.70;;;1.75;;
27257;SDS011;62045;49.986;8.672;2022-12-10T23:56:54;3.45;;;1.60;;
